Time;durP1;ratioP1;P1;durP2;ratioP2;P2;SDS_P1;SDS_P2;PMS_P1;PMS_P2;Temp;Humidity;BMP_temperature;BMP_pressure;BME280_temperature;BME280_humidity;BME280_pressure;Samples;Min_cycle;Max_cycle;Signal;HPM_P1;HPM_P2
2023/06/20 00:01:26;;;;;;;16.25;12.13;;;;;;;;;;10206879;29;20118;-88
2023/06/20 00:06:28;;;;;;;20.45;13.52;;;;;;;;;;10206671;29;20037;-90
2023/06/20 00:11:29;;;;;;;18.27;12.75;;;;;;;;;;10206304;29;20531;-89
2023/06/20 00:16:30;;;;;;;16.77;13.43;;;;;;;;;;10206593;29;20044;-89
2023/06/20 00:21:31;;;;;;;16.02;12.98;;;;;;;;;;10205936;29;20035;-89
2023/06/20 00:26:32;;;;;;;18.33;13.88;;;;;;;;;;10205805;29;20031;-89
2023/06/20 00:31:33;;;;;;;16.67;13.35;;;;;;;;;;10195848;29;20079;-89
2023/06/20 00:36:34;;;;;;;21.48;14.52;;;;;;;;;;10205197;29;20031;-89
2023/06/20 00:41:35;;;;;;;19.42;14.57;;;;;;;;;;10204449;29;20417;-90
2023/06/20 00:46:37;;;;;;;18.52;13.57;;;;;;;;;;10204940;29;20034;-89
2023/06/20 00:51:39;;;;;;;19.45;13.77;;;;;;;;;;10204925;29;20412;-89
2023/06/20 00:56:41;;;;;;;22.75;16.58;;;;;;;;;;10204559;29;20091;-88
2023/06/20 01:01:42;;;;;;;22.77;16.60;;;;;;;;;;10204152;29;20023;-88
2023/06/20 01:06:47;;;;;;;20.75;15.60;;;;;;;;;;10204186;29;20031;-89
2023/06/20 01:12:09;;;;;;;21.03;16.17;;;;;;;;;;10203964;29;20059;-89
2023/06/20 01:17:17;;;;;;;23.30;16.23;;;;;;;;;;10203804;29;20034;-88
2023/06/20 01:22:38;;;;;;;21.52;16.38;;;;;;;;;;10204862;29;20024;-87
2023/06/20 01:27:49;;;;;;;26.50;17.48;;;;;;;;;;10203625;29;20056;-89
2023/06/20 01:32:52;;;;;;;23.40;15.23;;;;;;;;;;10175121;29;20407;-89
2023/06/20 01:37:56;;;;;;;23.15;16.65;;;;;;;;;;10187104;29;20548;-88
2023/06/20 01:42:58;;;;;;;23.27;17.08;;;;;;;;;;10186792;29;20044;-89
2023/06/20 01:48:00;;;;;;;23.70;16.52;;;;;;;;;;10187509;29;20076;-89
2023/06/20 01:53:02;;;;;;;24.00;15.73;;;;;;;;;;10169937;29;20044;-88
2023/06/20 01:58:04;;;;;;;24.83;18.08;;;;;;;;;;10178295;29;20387;-88
2023/06/20 02:03:06;;;;;;;22.70;16.10;;;;;;;;;;10186621;29;20127;-87
2023/06/20 02:08:07;;;;;;;27.05;18.33;;;;;;;;;;10186847;29;20032;-89
2023/06/20 02:13:09;;;;;;;24.90;18.00;;;;;;;;;;10160907;29;20047;-89
2023/06/20 02:18:12;;;;;;;25.45;18.52;;;;;;;;;;10185482;29;20032;-89
2023/06/20 02:23:15;;;;;;;24.70;18.63;;;;;;;;;;10186042;29;20524;-89
2023/06/20 02:28:17;;;;;;;24.65;18.23;;;;;;;;;;10173111;29;20447;-88
2023/06/20 02:33:19;;;;;;;27.52;19.95;;;;;;;;;;10185789;29;20047;-89
2023/06/20 02:38:20;;;;;;;27.80;20.00;;;;;;;;;;10185946;29;20038;-90
2023/06/20 02:43:21;;;;;;;26.35;19.05;;;;;;;;;;10185088;29;20031;-89
2023/06/20 02:48:27;;;;;;;32.00;20.17;;;;;;;;;;10185691;29;20036;-89
2023/06/20 02:53:42;;;;;;;25.45;18.35;;;;;;;;;;10185151;29;20131;-89
2023/06/20 02:58:51;;;;;;;24.23;17.93;;;;;;;;;;10162522;29;20092;-89
2023/06/20 03:03:54;;;;;;;23.48;18.02;;;;;;;;;;10172890;29;20044;-89
2023/06/20 03:08:57;;;;;;;25.08;19.98;;;;;;;;;;10193650;29;20570;-88
2023/06/20 03:13:59;;;;;;;27.48;18.73;;;;;;;;;;10183349;29;20043;-85
2023/06/20 03:19:02;;;;;;;26.75;20.88;;;;;;;;;;10188807;29;20126;-88
2023/06/20 03:24:04;;;;;;;23.55;18.15;;;;;;;;;;10191643;29;20060;-88
2023/06/20 03:29:05;;;;;;;27.67;21.02;;;;;;;;;;10191798;29;20056;-88
2023/06/20 03:34:06;;;;;;;26.40;20.50;;;;;;;;;;10191962;29;20043;-88
2023/06/20 03:39:07;;;;;;;26.20;18.65;;;;;;;;;;10191761;29;20030;-88
2023/06/20 03:44:08;;;;;;;28.35;20.02;;;;;;;;;;10191964;29;20027;-87
2023/06/20 03:49:09;;;;;;;28.67;21.00;;;;;;;;;;10191784;29;20039;-88
2023/06/20 03:54:10;;;;;;;27.88;20.58;;;;;;;;;;10190738;29;20050;-88
2023/06/20 03:59:14;;;;;;;30.45;19.23;;;;;;;;;;10162542;29;20075;-88
2023/06/20 04:04:16;;;;;;;25.95;19.10;;;;;;;;;;10187401;29;20164;-88
2023/06/20 04:09:17;;;;;;;25.77;19.45;;;;;;;;;;10190335;29;20061;-88
2023/06/20 04:14:18;;;;;;;24.92;19.45;;;;;;;;;;10190552;29;20043;-88
2023/06/20 04:19:21;;;;;;;26.60;19.23;;;;;;;;;;10189778;29;20134;-87
2023/06/20 04:24:22;;;;;;;26.58;19.90;;;;;;;;;;10190145;29;20373;-89
2023/06/20 04:29:23;;;;;;;30.92;21.27;;;;;;;;;;10189374;29;20055;-89
2023/06/20 04:34:24;;;;;;;31.70;22.25;;;;;;;;;;10189639;29;20117;-88
2023/06/20 04:39:26;;;;;;;29.02;21.50;;;;;;;;;;10189667;29;20059;-89
2023/06/20 04:44:27;;;;;;;28.30;20.27;;;;;;;;;;10188400;29;20051;-88
2023/06/20 04:49:28;;;;;;;28.90;19.17;;;;;;;;;;10189054;29;20047;-88
2023/06/20 04:54:29;;;;;;;22.80;18.30;;;;;;;;;;10188122;29;20040;-89
2023/06/20 04:59:30;;;;;;;25.92;18.77;;;;;;;;;;10184188;29;20040;-87
2023/06/20 05:04:32;;;;;;;26.55;19.17;;;;;;;;;;10179095;29;20023;-88
2023/06/20 05:14:52;;;;;;;23.45;18.77;;;;;;;;;;10205051;29;20552;-88
2023/06/20 05:19:53;;;;;;;24.17;17.80;;;;;;;;;;10187545;29;20066;-88
2023/06/20 05:24:54;;;;;;;24.83;18.35;;;;;;;;;;10187628;29;20481;-89
2023/06/20 05:29:55;;;;;;;22.13;17.15;;;;;;;;;;10186687;29;20062;-88
2023/06/20 05:34:56;;;;;;;22.63;17.05;;;;;;;;;;10187056;29;20410;-88
2023/06/20 05:40:06;;;;;;;22.70;16.88;;;;;;;;;;10187451;29;20464;-88
2023/06/20 05:45:08;;;;;;;23.30;16.30;;;;;;;;;;10187776;29;20039;-88
2023/06/20 05:50:09;;;;;;;22.70;15.50;;;;;;;;;;10186869;29;20036;-88
2023/06/20 05:55:10;;;;;;;20.45;14.18;;;;;;;;;;10186491;29;20075;-88
2023/06/20 06:00:12;;;;;;;20.02;14.02;;;;;;;;;;10187141;29;20032;-88
2023/06/20 06:05:13;;;;;;;25.95;13.07;;;;;;;;;;10185289;29;20035;-90
2023/06/20 06:10:14;;;;;;;21.27;12.93;;;;;;;;;;10186557;29;20070;-87
2023/06/20 06:15:16;;;;;;;15.77;12.30;;;;;;;;;;10185851;29;20598;-88
2023/06/20 06:20:19;;;;;;;24.90;12.75;;;;;;;;;;10173645;29;20032;-92
2023/06/20 06:25:20;;;;;;;21.58;12.85;;;;;;;;;;10182668;29;20040;-90
2023/06/20 06:30:21;;;;;;;19.35;12.82;;;;;;;;;;10185474;29;20055;-89
2023/06/20 06:35:23;;;;;;;15.82;11.57;;;;;;;;;;10186123;29;20047;-90
2023/06/20 06:40:24;;;;;;;17.55;11.57;;;;;;;;;;10188549;29;20248;-87
2023/06/20 06:45:26;;;;;;;18.42;12.07;;;;;;;;;;10193071;29;20130;-89
2023/06/20 06:50:27;;;;;;;16.45;11.30;;;;;;;;;;10194054;29;20035;-89
2023/06/20 06:55:28;;;;;;;21.52;11.60;;;;;;;;;;10193950;29;20464;-89
2023/06/20 07:00:29;;;;;;;12.98;10.02;;;;;;;;;;10193052;29;20384;-89
2023/06/20 07:05:31;;;;;;;20.45;10.55;;;;;;;;;;10180611;29;20047;-89
2023/06/20 07:10:32;;;;;;;15.20;9.63;;;;;;;;;;10209563;29;20028;-91
2023/06/20 07:15:33;;;;;;;14.13;9.30;;;;;;;;;;10192982;29;20135;-91
2023/06/20 07:20:34;;;;;;;13.85;8.25;;;;;;;;;;10192149;29;20074;-88
2023/06/20 07:25:35;;;;;;;14.85;8.45;;;;;;;;;;10176003;29;20127;-89
2023/06/20 07:30:36;;;;;;;10.68;7.82;;;;;;;;;;10185149;29;20566;-90
2023/06/20 07:35:37;;;;;;;13.40;8.70;;;;;;;;;;10207770;29;20059;-91
2023/06/20 07:40:40;;;;;;;10.88;7.60;;;;;;;;;;10207684;29;20024;-89
2023/06/20 07:45:41;;;;;;;7.70;6.85;;;;;;;;;;10207330;29;20127;-90
2023/06/20 07:50:42;;;;;;;14.55;7.53;;;;;;;;;;10206811;29;20035;-90
2023/06/20 07:55:43;;;;;;;10.85;7.60;;;;;;;;;;10206723;29;20074;-90
2023/06/20 08:00:44;;;;;;;10.93;7.38;;;;;;;;;;10207283;29;20472;-85
2023/06/20 08:05:46;;;;;;;10.40;7.25;;;;;;;;;;10207838;29;20031;-90
2023/06/20 08:10:47;;;;;;;10.15;6.80;;;;;;;;;;10201471;29;20032;-90
2023/06/20 08:15:48;;;;;;;10.27;6.95;;;;;;;;;;10205926;29;20121;-87
2023/06/20 08:20:49;;;;;;;10.20;7.13;;;;;;;;;;10205356;29;20059;-87
2023/06/20 08:25:50;;;;;;;9.98;6.55;;;;;;;;;;10206069;29;20035;-87
2023/06/20 08:30:51;;;;;;;8.30;6.50;;;;;;;;;;10183436;29;20056;-88
2023/06/20 08:35:52;;;;;;;9.77;6.97;;;;;;;;;;10191740;29;20040;-86
2023/06/20 08:40:53;;;;;;;10.25;7.25;;;;;;;;;;10193416;29;20031;-86
2023/06/20 08:45:55;;;;;;;7.90;6.40;;;;;;;;;;10194251;29;20036;-86
2023/06/20 08:50:57;;;;;;;7.10;6.40;;;;;;;;;;10189158;29;20036;-88
2023/06/20 08:55:58;;;;;;;8.77;6.78;;;;;;;;;;10164931;29;20141;-88
2023/06/20 09:01:00;;;;;;;8.70;6.90;;;;;;;;;;10195008;29;20587;-87
2023/06/20 09:06:01;;;;;;;8.48;6.53;;;;;;;;;;10203615;29;20078;-87
2023/06/20 09:11:08;;;;;;;9.68;6.68;;;;;;;;;;10202932;29;20032;-89
2023/06/20 09:16:09;;;;;;;9.70;7.38;;;;;;;;;;10203543;29;20043;-86
2023/06/20 09:21:16;;;;;;;8.05;6.88;;;;;;;;;;10202819;29;20039;-86
2023/06/20 09:26:18;;;;;;;10.50;7.00;;;;;;;;;;10203786;29;20472;-87
2023/06/20 09:31:19;;;;;;;7.72;6.93;;;;;;;;;;10190333;29;20110;-89
2023/06/20 09:36:21;;;;;;;10.23;7.20;;;;;;;;;;10202686;29;20495;-87
2023/06/20 09:41:22;;;;;;;8.25;7.43;;;;;;;;;;10204732;29;20130;-87
2023/06/20 09:46:23;;;;;;;8.38;7.45;;;;;;;;;;10202250;29;20039;-87
2023/06/20 09:51:26;;;;;;;10.90;7.47;;;;;;;;;;10202521;29;20066;-88
2023/06/20 09:56:29;;;;;;;10.13;7.32;;;;;;;;;;10201918;29;20542;-87
2023/06/20 10:01:32;;;;;;;16.15;7.80;;;;;;;;;;10202751;29;20026;-87
2023/06/20 10:06:37;;;;;;;10.93;7.88;;;;;;;;;;10203423;29;20499;-87
2023/06/20 10:11:39;;;;;;;10.80;7.43;;;;;;;;;;10201823;29;20533;-89
2023/06/20 10:16:50;;;;;;;8.93;8.02;;;;;;;;;;10203646;29;20046;-86
2023/06/20 10:21:53;;;;;;;10.50;7.75;;;;;;;;;;10202062;29;20035;-87
2023/06/20 10:26:55;;;;;;;9.82;8.10;;;;;;;;;;10201850;29;20075;-87
2023/06/20 10:31:57;;;;;;;9.65;7.63;;;;;;;;;;10201358;29;20059;-88
2023/06/20 10:37:16;;;;;;;11.77;7.88;;;;;;;;;;10203529;29;20115;-88
2023/06/20 10:42:37;;;;;;;9.00;7.38;;;;;;;;;;10188810;29;20035;-87
2023/06/20 10:47:38;;;;;;;11.43;8.18;;;;;;;;;;10201630;29;20090;-87
2023/06/20 10:52:40;;;;;;;8.23;7.35;;;;;;;;;;10201446;29;20043;-86
2023/06/20 10:57:45;;;;;;;8.63;7.10;;;;;;;;;;10201419;29;20035;-88
2023/06/20 11:02:48;;;;;;;8.60;7.47;;;;;;;;;;10201232;29;20036;-87
2023/06/20 11:07:52;;;;;;;12.10;7.15;;;;;;;;;;10200819;29;20027;-87
2023/06/20 11:12:53;;;;;;;10.05;7.60;;;;;;;;;;10200973;29;20091;-88
2023/06/20 11:17:55;;;;;;;12.98;7.63;;;;;;;;;;10200351;29;20040;-88
2023/06/20 11:22:57;;;;;;;10.38;7.75;;;;;;;;;;10200933;29;20035;-88
2023/06/20 11:28:08;;;;;;;10.02;7.68;;;;;;;;;;10205282;29;20142;-88
2023/06/20 11:33:13;;;;;;;10.45;8.00;;;;;;;;;;10192612;29;20095;-88
2023/06/20 11:38:32;;;;;;;9.10;8.02;;;;;;;;;;10209904;29;20361;-88
2023/06/20 11:43:40;;;;;;;8.57;7.50;;;;;;;;;;10183433;29;20086;-87
2023/06/20 11:48:56;;;;;;;10.82;8.07;;;;;;;;;;10156494;29;20040;-89
2023/06/20 11:54:01;;;;;;;10.02;8.25;;;;;;;;;;10175030;29;20111;-86
2023/06/20 11:59:03;;;;;;;9.70;7.85;;;;;;;;;;10165513;29;20054;-86
2023/06/20 12:04:12;;;;;;;9.23;8.32;;;;;;;;;;10167190;29;20028;-86
2023/06/20 12:09:18;;;;;;;11.18;8.20;;;;;;;;;;10188823;29;20499;-86
2023/06/20 12:14:19;;;;;;;10.75;8.15;;;;;;;;;;10177530;29;20487;-86
2023/06/20 12:19:20;;;;;;;9.75;7.88;;;;;;;;;;10190371;29;20039;-87
2023/06/20 12:24:27;;;;;;;8.98;7.78;;;;;;;;;;10190275;29;20024;-88
2023/06/20 12:29:28;;;;;;;9.73;8.15;;;;;;;;;;10189876;29;20059;-87
2023/06/20 12:34:29;;;;;;;8.52;7.63;;;;;;;;;;10176644;29;20071;-89
2023/06/20 12:39:30;;;;;;;10.07;8.30;;;;;;;;;;10188592;29;20066;-88
2023/06/20 12:44:31;;;;;;;10.35;8.45;;;;;;;;;;10189595;29;20031;-85
2023/06/20 12:49:32;;;;;;;8.63;7.68;;;;;;;;;;10184783;29;20035;-87
2023/06/20 12:54:33;;;;;;;12.15;7.93;;;;;;;;;;10177551;29;20040;-87
2023/06/20 12:59:34;;;;;;;8.70;7.80;;;;;;;;;;10189389;29;20040;-88
2023/06/20 13:04:35;;;;;;;8.35;7.50;;;;;;;;;;10188153;29;20063;-86
2023/06/20 13:09:36;;;;;;;9.30;7.57;;;;;;;;;;10188312;29;20055;-88
2023/06/20 13:14:38;;;;;;;9.32;8.15;;;;;;;;;;10175767;29;20027;-88
2023/06/20 13:19:38;;;;;;;8.73;7.53;;;;;;;;;;10187952;29;20507;-87
2023/06/20 13:24:42;;;;;;;9.63;7.90;;;;;;;;;;10165859;29;20040;-87
2023/06/20 13:29:43;;;;;;;9.93;7.82;;;;;;;;;;10185410;29;20078;-88
2023/06/20 13:34:44;;;;;;;11.60;7.82;;;;;;;;;;10204016;29;20035;-86
2023/06/20 13:39:45;;;;;;;10.57;7.60;;;;;;;;;;10204856;29;20051;-85
2023/06/20 13:44:46;;;;;;;10.27;8.25;;;;;;;;;;10178349;29;20024;-86
2023/06/20 13:49:47;;;;;;;9.82;7.97;;;;;;;;;;10186445;29;20047;-86
2023/06/20 13:54:48;;;;;;;9.07;8.18;;;;;;;;;;10186949;29;20043;-86
2023/06/20 13:59:49;;;;;;;9.35;7.60;;;;;;;;;;10204060;29;20035;-87
2023/06/20 14:04:53;;;;;;;10.35;8.27;;;;;;;;;;10186283;29;20023;-87
2023/06/20 14:09:54;;;;;;;9.50;8.55;;;;;;;;;;10169575;29;20083;-88
2023/06/20 14:14:56;;;;;;;14.48;10.45;;;;;;;;;;10173965;29;20036;-89
2023/06/20 14:19:57;;;;;;;10.90;9.55;;;;;;;;;;10160745;29;20043;-87
2023/06/20 14:24:58;;;;;;;11.15;8.60;;;;;;;;;;10203160;29;20551;-89
2023/06/20 14:29:59;;;;;;;13.05;10.15;;;;;;;;;;10163002;29;20147;-84
2023/06/20 14:35:01;;;;;;;11.90;10.70;;;;;;;;;;10182642;29;20043;-86
2023/06/20 14:40:02;;;;;;;13.02;8.82;;;;;;;;;;10184311;29;20043;-86
2023/06/20 14:45:03;;;;;;;13.90;8.60;;;;;;;;;;10185530;29;20075;-85
2023/06/20 14:50:04;;;;;;;12.23;9.75;;;;;;;;;;10187016;29;20043;-88
2023/06/20 14:55:06;;;;;;;9.18;8.25;;;;;;;;;;10179582;29;20035;-87
2023/06/20 15:00:07;;;;;;;9.57;8.57;;;;;;;;;;10177958;29;20059;-86
2023/06/20 15:05:09;;;;;;;9.50;8.10;;;;;;;;;;10193333;29;20063;-86
2023/06/20 15:10:10;;;;;;;11.90;8.50;;;;;;;;;;10210035;29;20040;-86
2023/06/20 15:15:11;;;;;;;9.95;8.77;;;;;;;;;;10192586;29;20102;-88
2023/06/20 15:20:12;;;;;;;8.60;7.40;;;;;;;;;;10192755;29;20384;-84
2023/06/20 15:25:13;;;;;;;8.90;7.65;;;;;;;;;;10209956;29;20032;-84
2023/06/20 15:30:14;;;;;;;10.32;7.95;;;;;;;;;;10178815;29;20064;-85
2023/06/20 15:35:15;;;;;;;12.38;7.88;;;;;;;;;;10191967;29;20044;-84
2023/06/20 15:40:16;;;;;;;9.48;8.18;;;;;;;;;;10199362;29;20038;-87
2023/06/20 15:45:19;;;;;;;10.35;8.88;;;;;;;;;;10189965;29;20071;-87
2023/06/20 15:50:20;;;;;;;10.18;7.88;;;;;;;;;;10208431;29;20036;-84
2023/06/20 15:55:21;;;;;;;11.32;8.13;;;;;;;;;;10191295;29;20039;-85
2023/06/20 16:00:22;;;;;;;9.27;8.27;;;;;;;;;;10209299;29;20023;-84
2023/06/20 16:05:23;;;;;;;11.13;9.43;;;;;;;;;;10184463;29;20650;-83
2023/06/20 16:10:24;;;;;;;10.30;9.30;;;;;;;;;;10168820;29;20044;-83
2023/06/20 16:15:25;;;;;;;11.60;9.55;;;;;;;;;;10150772;29;20148;-86
2023/06/20 16:20:26;;;;;;;11.95;9.85;;;;;;;;;;10165805;29;20054;-86
2023/06/20 16:25:27;;;;;;;11.93;10.02;;;;;;;;;;10207274;29;20428;-88
2023/06/20 16:30:28;;;;;;;10.10;8.98;;;;;;;;;;10206903;29;20118;-87
2023/06/20 16:35:29;;;;;;;10.95;9.38;;;;;;;;;;10205989;29;20038;-85
2023/06/20 16:40:30;;;;;;;11.63;9.60;;;;;;;;;;10168950;29;20574;-86
2023/06/20 16:45:31;;;;;;;10.85;9.30;;;;;;;;;;10206349;29;20024;-86
2023/06/20 16:50:32;;;;;;;12.95;9.68;;;;;;;;;;10189626;29;20032;-87
2023/06/20 16:55:33;;;;;;;14.40;10.70;;;;;;;;;;10189131;29;20028;-86
2023/06/20 17:00:34;;;;;;;15.57;11.68;;;;;;;;;;10175620;29;20099;-86
2023/06/20 17:05:35;;;;;;;16.05;10.45;;;;;;;;;;10205449;29;20454;-86
2023/06/20 17:10:36;;;;;;;15.02;10.48;;;;;;;;;;10206038;29;20384;-86
2023/06/20 17:15:37;;;;;;;16.55;10.18;;;;;;;;;;10188469;29;20509;-86
2023/06/20 17:20:38;;;;;;;15.18;10.45;;;;;;;;;;10187194;29;20024;-86
2023/06/20 17:25:39;;;;;;;16.90;10.63;;;;;;;;;;10148116;29;20039;-87
2023/06/20 17:30:40;;;;;;;13.20;10.38;;;;;;;;;;10174690;29;20055;-87
2023/06/20 17:35:41;;;;;;;15.68;10.73;;;;;;;;;;10148706;29;20452;-86
2023/06/20 17:40:42;;;;;;;14.32;10.50;;;;;;;;;;10203581;29;20077;-87
2023/06/20 17:45:43;;;;;;;14.23;10.73;;;;;;;;;;10186851;29;20086;-86
2023/06/20 17:50:44;;;;;;;12.25;9.32;;;;;;;;;;10171393;29;20130;-86
2023/06/20 17:55:46;;;;;;;25.05;10.27;;;;;;;;;;10162074;29;20043;-86
2023/06/20 18:00:47;;;;;;;14.70;10.82;;;;;;;;;;10202618;29;20111;-87
2023/06/20 18:05:48;;;;;;;16.98;11.38;;;;;;;;;;10173648;29;20028;-86
2023/06/20 18:10:49;;;;;;;19.27;11.50;;;;;;;;;;10172561;29;20040;-86
2023/06/20 18:15:50;;;;;;;13.38;10.10;;;;;;;;;;10186089;29;20039;-85
2023/06/20 18:20:51;;;;;;;16.77;10.63;;;;;;;;;;10190215;29;20040;-88
2023/06/20 18:25:52;;;;;;;13.65;10.57;;;;;;;;;;10203059;29;20402;-86
2023/06/20 18:30:53;;;;;;;17.85;11.52;;;;;;;;;;10189702;29;20055;-86
2023/06/20 18:35:54;;;;;;;16.45;11.90;;;;;;;;;;10205128;29;20050;-86
2023/06/20 18:40:55;;;;;;;16.10;12.30;;;;;;;;;;10211164;29;20042;-87
2023/06/20 18:45:56;;;;;;;18.95;12.15;;;;;;;;;;10209685;29;20118;-87
2023/06/20 18:50:57;;;;;;;18.40;11.15;;;;;;;;;;10209496;29;20045;-86
2023/06/20 18:55:58;;;;;;;15.85;10.27;;;;;;;;;;10208819;29;20773;-86
2023/06/20 19:00:59;;;;;;;16.10;11.48;;;;;;;;;;10208588;29;20055;-86
2023/06/20 19:06:00;;;;;;;15.13;12.35;;;;;;;;;;10210184;29;20038;-86
2023/06/20 19:11:02;;;;;;;15.93;11.52;;;;;;;;;;10208339;29;20032;-86
2023/06/20 19:16:03;;;;;;;16.08;11.73;;;;;;;;;;10209643;29;20044;-86
2023/06/20 19:21:07;;;;;;;17.35;11.93;;;;;;;;;;10206325;29;20031;-86
2023/06/20 19:26:08;;;;;;;16.60;11.40;;;;;;;;;;10199673;29;20036;-86
2023/06/20 19:31:09;;;;;;;15.43;11.43;;;;;;;;;;10209648;29;20468;-87
2023/06/20 19:36:10;;;;;;;24.85;11.40;;;;;;;;;;10208952;29;20031;-86
2023/06/20 19:41:11;;;;;;;16.38;11.35;;;;;;;;;;10192218;29;20456;-87
2023/06/20 19:46:12;;;;;;;14.05;11.07;;;;;;;;;;10208000;29;20020;-85
2023/06/20 19:51:13;;;;;;;16.15;10.82;;;;;;;;;;10208476;29;20500;-87
2023/06/20 19:56:14;;;;;;;15.55;11.63;;;;;;;;;;10191109;29;20038;-85
2023/06/20 20:01:15;;;;;;;16.63;11.73;;;;;;;;;;10207852;29;20027;-85
2023/06/20 20:06:16;;;;;;;16.95;12.02;;;;;;;;;;10208196;29;20440;-85
2023/06/20 20:11:17;;;;;;;16.02;12.05;;;;;;;;;;10208611;29;20040;-86
2023/06/20 20:16:18;;;;;;;16.17;12.38;;;;;;;;;;10163814;29;20050;-86
2023/06/20 20:21:19;;;;;;;17.05;13.10;;;;;;;;;;10168215;29;20042;-85
2023/06/20 20:26:22;;;;;;;16.95;12.77;;;;;;;;;;10150568;29;20028;-86
2023/06/20 20:31:25;;;;;;;17.95;12.90;;;;;;;;;;10167828;29;20071;-86
2023/06/20 20:36:26;;;;;;;16.67;12.88;;;;;;;;;;10167123;29;20551;-86
2023/06/20 20:41:27;;;;;;;16.35;12.27;;;;;;;;;;10167617;29;20024;-86
2023/06/20 20:46:28;;;;;;;20.33;12.80;;;;;;;;;;10167992;29;20035;-86
2023/06/20 20:51:29;;;;;;;16.67;12.73;;;;;;;;;;10149867;29;20452;-86
2023/06/20 20:56:31;;;;;;;17.25;12.93;;;;;;;;;;10166801;29;20028;-87
2023/06/20 21:01:32;;;;;;;15.93;13.00;;;;;;;;;;10148517;29;20036;-87
2023/06/20 21:06:33;;;;;;;19.10;13.80;;;;;;;;;;10170889;29;20087;-85
2023/06/20 21:11:36;;;;;;;19.15;12.68;;;;;;;;;;10166298;29;20071;-86
2023/06/20 21:16:37;;;;;;;19.88;13.05;;;;;;;;;;10149218;29;20036;-86
2023/06/20 21:21:38;;;;;;;19.23;13.98;;;;;;;;;;10165998;29;20380;-86
2023/06/20 21:26:39;;;;;;;18.58;14.48;;;;;;;;;;10165669;29;20453;-86
2023/06/20 21:31:40;;;;;;;16.13;12.82;;;;;;;;;;10158749;29;20060;-87
2023/06/20 21:36:41;;;;;;;17.85;12.05;;;;;;;;;;10163817;29;20047;-86
2023/06/20 21:41:42;;;;;;;20.85;12.88;;;;;;;;;;10176970;29;20035;-87
2023/06/20 21:46:43;;;;;;;17.65;13.25;;;;;;;;;;10191378;29;20032;-88
2023/06/20 21:51:45;;;;;;;17.15;12.88;;;;;;;;;;10196321;29;20188;-87
2023/06/20 21:56:46;;;;;;;17.77;12.35;;;;;;;;;;10194812;29;20059;-87
2023/06/20 22:01:47;;;;;;;19.15;13.00;;;;;;;;;;10202078;29;20480;-87
2023/06/20 22:06:48;;;;;;;18.17;12.48;;;;;;;;;;10202564;29;20043;-88
2023/06/20 22:11:49;;;;;;;21.92;14.75;;;;;;;;;;10203662;29;20031;-88
2023/06/20 22:16:50;;;;;;;23.02;15.55;;;;;;;;;;10177041;29;20172;-87
2023/06/20 22:21:51;;;;;;;19.38;13.85;;;;;;;;;;10203385;29;20019;-87
2023/06/20 22:26:52;;;;;;;16.23;12.65;;;;;;;;;;10201179;29;20055;-87
2023/06/20 22:31:53;;;;;;;32.45;12.98;;;;;;;;;;10201783;29;20532;-87
2023/06/20 22:36:54;;;;;;;17.90;12.90;;;;;;;;;;10202493;29;20058;-88
2023/06/20 22:41:55;;;;;;;19.50;13.80;;;;;;;;;;10201014;29;20044;-87
2023/06/20 22:46:56;;;;;;;19.00;13.07;;;;;;;;;;10201340;29;20519;-88
2023/06/20 22:51:57;;;;;;;16.55;12.90;;;;;;;;;;10202194;29;20028;-87
2023/06/20 22:56:58;;;;;;;17.08;12.68;;;;;;;;;;10202235;29;20054;-87
2023/06/20 23:01:59;;;;;;;15.13;13.13;;;;;;;;;;10200881;29;20031;-88
2023/06/20 23:07:00;;;;;;;17.25;13.57;;;;;;;;;;10200759;29;20566;-87
2023/06/20 23:12:01;;;;;;;14.40;11.77;;;;;;;;;;10201581;29;20044;-87
2023/06/20 23:17:04;;;;;;;17.75;12.80;;;;;;;;;;10201729;29;20035;-88
2023/06/20 23:22:07;;;;;;;16.92;13.18;;;;;;;;;;10205626;29;20032;-87
2023/06/20 23:27:08;;;;;;;17.95;13.23;;;;;;;;;;10208214;29;20530;-87
2023/06/20 23:32:09;;;;;;;15.88;12.38;;;;;;;;;;10208239;29;20126;-87
2023/06/20 23:37:11;;;;;;;15.18;12.57;;;;;;;;;;10207321;29;20055;-87
2023/06/20 23:42:14;;;;;;;15.93;12.07;;;;;;;;;;10207374;29;20024;-88
2023/06/20 23:47:15;;;;;;;14.77;12.00;;;;;;;;;;10207143;29;20046;-88
2023/06/20 23:52:17;;;;;;;14.73;11.38;;;;;;;;;;10208921;29;20032;-88
2023/06/20 23:57:18;;;;;;;13.05;11.65;;;;;;;;;;10207268;29;20136;-88
